Rechercher aéroport 
image banner adimage banner ad
image banner ad

SBPB - Prefeito Doutor João Silva Filho Airport

Situé à Parnaíba, Brazil

ICAO - SBPB, IATA - PHB

Données fournies par Airmate  

Information générale

Coordonnées: S2°53'38" W41°43'49"
Élévation : 16 feet MSL.
Variation magnétique : -20° East
Voir autres Aéroports à Piauí

Données opérationnelles

Accessible au public
Heure actuelle UTC:
Heure actuelle locale:
Météo
METAR: SBPB 181200Z 09012KT 9999 SCT017 BKN100 28/25 Q1010
TAF: TAF SBPB 180855Z 1812/1824 09010KT 9999 SCT020 TX32/1817Z TN29/1824Z BECMG 1812/1814 07017KT BECMG 1818/1820 04014KT RMK PGW
Voir NOTAMs / SUP AIP / TFR affectant cet aéroport [VIEW]
Fréquences de communication: [VIEW]

Pistes:

Coordonnées de l'aéroport

Adresse: Parnaíba Brazil

Vue satellite de SBPB